sensor_id;sensor_type;location;lat;lon;timestamp;temperature;humidity
5027;DHT22;2532;52.480;13.354;2022-12-18T00:01:15;-3.10;92.80
5027;DHT22;2532;52.480;13.354;2022-12-18T00:03:42;-3.10;93.10
5027;DHT22;2532;52.480;13.354;2022-12-18T00:06:09;-3.10;93.20
5027;DHT22;2532;52.480;13.354;2022-12-18T00:08:36;-3.00;93.40
5027;DHT22;2532;52.480;13.354;2022-12-18T00:11:03;-3.00;93.40
5027;DHT22;2532;52.480;13.354;2022-12-18T00:13:30;-2.90;93.40
5027;DHT22;2532;52.480;13.354;2022-12-18T00:16:03;-2.90;93.70
5027;DHT22;2532;52.480;13.354;2022-12-18T00:18:31;-2.90;93.30
5027;DHT22;2532;52.480;13.354;2022-12-18T00:20:59;-2.90;93.20
5027;DHT22;2532;52.480;13.354;2022-12-18T00:23:27;-2.90;92.90
5027;DHT22;2532;52.480;13.354;2022-12-18T00:25:53;-3.00;92.70
5027;DHT22;2532;52.480;13.354;2022-12-18T00:28:20;-3.00;92.80
5027;DHT22;2532;52.480;13.354;2022-12-18T00:30:47;-3.00;92.70
5027;DHT22;2532;52.480;13.354;2022-12-18T00:33:18;-3.10;92.80
5027;DHT22;2532;52.480;13.354;2022-12-18T00:35:45;-3.10;93.00
5027;DHT22;2532;52.480;13.354;2022-12-18T00:38:11;-3.10;93.10
5027;DHT22;2532;52.480;13.354;2022-12-18T00:40:38;-3.00;93.20
5027;DHT22;2532;52.480;13.354;2022-12-18T00:43:05;-3.00;93.30
5027;DHT22;2532;52.480;13.354;2022-12-18T00:45:31;-3.00;93.30
5027;DHT22;2532;52.480;13.354;2022-12-18T00:47:58;-2.90;93.10
5027;DHT22;2532;52.480;13.354;2022-12-18T00:50:26;-3.00;92.90
5027;DHT22;2532;52.480;13.354;2022-12-18T00:52:53;-3.00;92.90
5027;DHT22;2532;52.480;13.354;2022-12-18T00:55:20;-3.10;92.70
5027;DHT22;2532;52.480;13.354;2022-12-18T00:57:47;-3.10;92.60
5027;DHT22;2532;52.480;13.354;2022-12-18T01:00:15;-3.20;92.60
5027;DHT22;2532;52.480;13.354;2022-12-18T01:02:42;-3.20;92.70
5027;DHT22;2532;52.480;13.354;2022-12-18T01:05:10;-3.20;92.70
5027;DHT22;2532;52.480;13.354;2022-12-18T01:07:39;-3.20;92.70
5027;DHT22;2532;52.480;13.354;2022-12-18T01:10:07;-3.20;92.80
5027;DHT22;2532;52.480;13.354;2022-12-18T01:12:34;-3.20;92.90
5027;DHT22;2532;52.480;13.354;2022-12-18T01:15:02;-3.20;92.90
5027;DHT22;2532;52.480;13.354;2022-12-18T01:17:29;-3.20;92.80
5027;DHT22;2532;52.480;13.354;2022-12-18T01:19:56;-3.30;92.60
5027;DHT22;2532;52.480;13.354;2022-12-18T01:22:23;-3.30;92.70
5027;DHT22;2532;52.480;13.354;2022-12-18T01:24:51;-3.30;92.80
5027;DHT22;2532;52.480;13.354;2022-12-18T01:27:18;-3.30;92.90
5027;DHT22;2532;52.480;13.354;2022-12-18T01:29:45;-3.30;92.90
5027;DHT22;2532;52.480;13.354;2022-12-18T01:32:12;-3.30;92.90
5027;DHT22;2532;52.480;13.354;2022-12-18T01:34:39;-3.30;93.00
5027;DHT22;2532;52.480;13.354;2022-12-18T01:37:06;-3.20;93.20
5027;DHT22;2532;52.480;13.354;2022-12-18T01:39:34;-3.20;93.10
5027;DHT22;2532;52.480;13.354;2022-12-18T01:42:10;-3.20;93.10
5027;DHT22;2532;52.480;13.354;2022-12-18T01:45:06;-3.20;92.90
5027;DHT22;2532;52.480;13.354;2022-12-18T01:47:38;-3.20;92.90
5027;DHT22;2532;52.480;13.354;2022-12-18T01:50:09;-3.20;93.10
5027;DHT22;2532;52.480;13.354;2022-12-18T01:52:40;-3.20;93.20
5027;DHT22;2532;52.480;13.354;2022-12-18T01:55:09;-3.10;93.20
5027;DHT22;2532;52.480;13.354;2022-12-18T01:57:39;-3.10;93.20
5027;DHT22;2532;52.480;13.354;2022-12-18T02:00:10;-3.10;93.20
5027;DHT22;2532;52.480;13.354;2022-12-18T02:02:37;-3.00;93.20
5027;DHT22;2532;52.480;13.354;2022-12-18T02:05:06;-3.00;93.20
5027;DHT22;2532;52.480;13.354;2022-12-18T02:07:42;-3.00;93.00
5027;DHT22;2532;52.480;13.354;2022-12-18T02:10:17;-2.90;93.10
5027;DHT22;2532;52.480;13.354;2022-12-18T02:12:53;-2.90;92.90
5027;DHT22;2532;52.480;13.354;2022-12-18T02:15:26;-2.90;92.80
5027;DHT22;2532;52.480;13.354;2022-12-18T02:17:58;-2.90;92.60
5027;DHT22;2532;52.480;13.354;2022-12-18T02:20:33;-3.00;92.40
5027;DHT22;2532;52.480;13.354;2022-12-18T02:23:09;-3.00;92.50
5027;DHT22;2532;52.480;13.354;2022-12-18T02:26:08;-3.00;92.60
5027;DHT22;2532;52.480;13.354;2022-12-18T02:28:41;-3.10;92.50
5027;DHT22;2532;52.480;13.354;2022-12-18T02:31:11;-3.10;92.50
5027;DHT22;2532;52.480;13.354;2022-12-18T02:33:41;-3.10;92.40
5027;DHT22;2532;52.480;13.354;2022-12-18T02:36:11;-3.20;92.40
5027;DHT22;2532;52.480;13.354;2022-12-18T02:38:39;-3.10;92.50
5027;DHT22;2532;52.480;13.354;2022-12-18T02:41:08;-3.10;92.50
5027;DHT22;2532;52.480;13.354;2022-12-18T02:43:36;-3.20;92.30
5027;DHT22;2532;52.480;13.354;2022-12-18T02:46:24;-3.20;92.30
5027;DHT22;2532;52.480;13.354;2022-12-18T02:48:57;-3.20;92.30
5027;DHT22;2532;52.480;13.354;2022-12-18T02:51:30;-3.20;92.50
5027;DHT22;2532;52.480;13.354;2022-12-18T02:54:08;-3.20;92.50
5027;DHT22;2532;52.480;13.354;2022-12-18T02:56:42;-3.10;92.60
5027;DHT22;2532;52.480;13.354;2022-12-18T02:59:14;-3.10;92.60
5027;DHT22;2532;52.480;13.354;2022-12-18T03:01:50;-3.10;92.60
5027;DHT22;2532;52.480;13.354;2022-12-18T03:04:23;-3.10;92.40
5027;DHT22;2532;52.480;13.354;2022-12-18T03:06:55;-3.00;92.40
5027;DHT22;2532;52.480;13.354;2022-12-18T03:09:29;-3.10;92.30
5027;DHT22;2532;52.480;13.354;2022-12-18T03:12:08;-3.10;92.20
5027;DHT22;2532;52.480;13.354;2022-12-18T03:14:54;-3.10;92.00
5027;DHT22;2532;52.480;13.354;2022-12-18T03:17:24;-3.20;91.80
5027;DHT22;2532;52.480;13.354;2022-12-18T03:19:53;-3.30;91.70
5027;DHT22;2532;52.480;13.354;2022-12-18T03:22:24;-3.40;91.70
5027;DHT22;2532;52.480;13.354;2022-12-18T03:24:54;-3.40;91.80
5027;DHT22;2532;52.480;13.354;2022-12-18T03:27:25;-3.50;91.90
5027;DHT22;2532;52.480;13.354;2022-12-18T03:30:00;-3.50;91.90
5027;DHT22;2532;52.480;13.354;2022-12-18T03:32:38;-3.60;92.00
5027;DHT22;2532;52.480;13.354;2022-12-18T03:35:07;-3.60;92.20
5027;DHT22;2532;52.480;13.354;2022-12-18T03:37:35;-3.70;92.20
5027;DHT22;2532;52.480;13.354;2022-12-18T03:40:02;-3.70;92.30
5027;DHT22;2532;52.480;13.354;2022-12-18T03:42:37;-3.60;92.40
5027;DHT22;2532;52.480;13.354;2022-12-18T03:45:09;-3.60;92.40
5027;DHT22;2532;52.480;13.354;2022-12-18T03:47:41;-3.60;92.30
5027;DHT22;2532;52.480;13.354;2022-12-18T03:50:13;-3.60;92.30
5027;DHT22;2532;52.480;13.354;2022-12-18T03:52:45;-3.60;92.20
5027;DHT22;2532;52.480;13.354;2022-12-18T03:55:13;-3.60;92.20
5027;DHT22;2532;52.480;13.354;2022-12-18T03:57:42;-3.60;92.20
5027;DHT22;2532;52.480;13.354;2022-12-18T04:00:13;-3.70;92.20
5027;DHT22;2532;52.480;13.354;2022-12-18T04:02:44;-3.70;92.30
5027;DHT22;2532;52.480;13.354;2022-12-18T04:05:13;-3.70;92.40
5027;DHT22;2532;52.480;13.354;2022-12-18T04:07:41;-3.60;92.50
5027;DHT22;2532;52.480;13.354;2022-12-18T04:10:13;-3.60;92.40
5027;DHT22;2532;52.480;13.354;2022-12-18T04:12:42;-3.60;92.40
5027;DHT22;2532;52.480;13.354;2022-12-18T04:15:10;-3.60;92.20
5027;DHT22;2532;52.480;13.354;2022-12-18T04:17:38;-3.70;92.10
5027;DHT22;2532;52.480;13.354;2022-12-18T04:20:06;-3.70;92.10
5027;DHT22;2532;52.480;13.354;2022-12-18T04:22:33;-3.70;92.20
5027;DHT22;2532;52.480;13.354;2022-12-18T04:25:00;-3.70;92.20
5027;DHT22;2532;52.480;13.354;2022-12-18T04:27:27;-3.70;92.30
5027;DHT22;2532;52.480;13.354;2022-12-18T04:29:56;-3.70;92.30
5027;DHT22;2532;52.480;13.354;2022-12-18T04:32:23;-3.70;92.20
5027;DHT22;2532;52.480;13.354;2022-12-18T04:34:50;-3.70;92.20
5027;DHT22;2532;52.480;13.354;2022-12-18T04:37:17;-3.70;92.20
5027;DHT22;2532;52.480;13.354;2022-12-18T04:39:44;-3.80;92.20
5027;DHT22;2532;52.480;13.354;2022-12-18T04:42:10;-3.80;92.20
5027;DHT22;2532;52.480;13.354;2022-12-18T04:44:37;-3.80;92.20
5027;DHT22;2532;52.480;13.354;2022-12-18T04:47:06;-3.80;92.20
5027;DHT22;2532;52.480;13.354;2022-12-18T04:49:33;-3.80;92.30
5027;DHT22;2532;52.480;13.354;2022-12-18T04:52:00;-3.80;92.30
5027;DHT22;2532;52.480;13.354;2022-12-18T04:54:27;-3.80;92.50
5027;DHT22;2532;52.480;13.354;2022-12-18T04:56:54;-3.70;92.60
5027;DHT22;2532;52.480;13.354;2022-12-18T04:59:21;-3.70;92.50
5027;DHT22;2532;52.480;13.354;2022-12-18T05:01:47;-3.70;92.80
5027;DHT22;2532;52.480;13.354;2022-12-18T05:04:16;-3.70;92.50
5027;DHT22;2532;52.480;13.354;2022-12-18T05:06:43;-3.60;92.60
5027;DHT22;2532;52.480;13.354;2022-12-18T05:09:09;-3.60;92.60
5027;DHT22;2532;52.480;13.354;2022-12-18T05:11:36;-3.60;92.50
5027;DHT22;2532;52.480;13.354;2022-12-18T05:14:05;-3.60;92.30
5027;DHT22;2532;52.480;13.354;2022-12-18T05:16:32;-3.60;92.10
5027;DHT22;2532;52.480;13.354;2022-12-18T05:18:59;-3.60;92.10
5027;DHT22;2532;52.480;13.354;2022-12-18T05:21:27;-3.70;92.10
5027;DHT22;2532;52.480;13.354;2022-12-18T05:23:54;-3.70;92.10
5027;DHT22;2532;52.480;13.354;2022-12-18T05:26:24;-3.70;92.10
5027;DHT22;2532;52.480;13.354;2022-12-18T05:28:51;-3.70;92.10
5027;DHT22;2532;52.480;13.354;2022-12-18T05:31:18;-3.70;92.10
5027;DHT22;2532;52.480;13.354;2022-12-18T05:33:44;-3.70;92.10
5027;DHT22;2532;52.480;13.354;2022-12-18T05:36:11;-3.70;92.10
5027;DHT22;2532;52.480;13.354;2022-12-18T05:38:40;-3.70;92.10
5027;DHT22;2532;52.480;13.354;2022-12-18T05:41:07;-3.70;92.20
5027;DHT22;2532;52.480;13.354;2022-12-18T05:43:34;-3.70;92.20
5027;DHT22;2532;52.480;13.354;2022-12-18T05:46:04;-3.70;92.20
5027;DHT22;2532;52.480;13.354;2022-12-18T05:48:31;-3.70;92.60
5027;DHT22;2532;52.480;13.354;2022-12-18T05:51:04;-3.70;92.30
5027;DHT22;2532;52.480;13.354;2022-12-18T05:53:32;-3.70;92.30
5027;DHT22;2532;52.480;13.354;2022-12-18T05:56:01;-3.60;92.40
5027;DHT22;2532;52.480;13.354;2022-12-18T05:58:29;-3.60;92.40
5027;DHT22;2532;52.480;13.354;2022-12-18T06:00:56;-3.60;92.40
5027;DHT22;2532;52.480;13.354;2022-12-18T06:03:23;-3.60;92.30
5027;DHT22;2532;52.480;13.354;2022-12-18T06:05:50;-3.50;92.30
5027;DHT22;2532;52.480;13.354;2022-12-18T06:08:17;-3.50;92.20
5027;DHT22;2532;52.480;13.354;2022-12-18T06:10:50;-3.50;92.50
5027;DHT22;2532;52.480;13.354;2022-12-18T06:13:19;-3.50;92.20
5027;DHT22;2532;52.480;13.354;2022-12-18T06:15:46;-3.50;92.20
5027;DHT22;2532;52.480;13.354;2022-12-18T06:18:13;-3.50;92.20
5027;DHT22;2532;52.480;13.354;2022-12-18T06:20:42;-3.50;92.10
5027;DHT22;2532;52.480;13.354;2022-12-18T06:23:09;-3.50;92.10
5027;DHT22;2532;52.480;13.354;2022-12-18T06:25:38;-3.60;92.00
5027;DHT22;2532;52.480;13.354;2022-12-18T06:28:05;-3.60;92.10
5027;DHT22;2532;52.480;13.354;2022-12-18T06:30:33;-3.60;92.10
5027;DHT22;2532;52.480;13.354;2022-12-18T06:33:01;-3.50;92.10
5027;DHT22;2532;52.480;13.354;2022-12-18T06:35:28;-3.60;92.00
5027;DHT22;2532;52.480;13.354;2022-12-18T06:37:55;-3.60;92.10
5027;DHT22;2532;52.480;13.354;2022-12-18T06:40:22;-3.60;92.20
5027;DHT22;2532;52.480;13.354;2022-12-18T06:42:49;-3.50;92.40
5027;DHT22;2532;52.480;13.354;2022-12-18T06:45:16;-3.50;92.50
5027;DHT22;2532;52.480;13.354;2022-12-18T06:47:44;-3.50;92.30
5027;DHT22;2532;52.480;13.354;2022-12-18T06:50:12;-3.50;92.30
5027;DHT22;2532;52.480;13.354;2022-12-18T06:52:39;-3.50;92.30
5027;DHT22;2532;52.480;13.354;2022-12-18T06:55:11;-3.50;92.40
5027;DHT22;2532;52.480;13.354;2022-12-18T06:57:38;-3.40;92.40
5027;DHT22;2532;52.480;13.354;2022-12-18T07:00:06;-3.40;92.40
5027;DHT22;2532;52.480;13.354;2022-12-18T07:02:34;-3.40;92.30
5027;DHT22;2532;52.480;13.354;2022-12-18T07:05:06;-3.40;92.20
5027;DHT22;2532;52.480;13.354;2022-12-18T07:07:33;-3.40;92.10
5027;DHT22;2532;52.480;13.354;2022-12-18T07:10:00;-3.40;92.10
5027;DHT22;2532;52.480;13.354;2022-12-18T07:12:27;-3.40;92.10
5027;DHT22;2532;52.480;13.354;2022-12-18T07:14:56;-3.50;92.00
5027;DHT22;2532;52.480;13.354;2022-12-18T07:17:23;-3.50;91.90
5027;DHT22;2532;52.480;13.354;2022-12-18T07:19:49;-3.50;92.00
5027;DHT22;2532;52.480;13.354;2022-12-18T07:22:20;-3.50;92.20
5027;DHT22;2532;52.480;13.354;2022-12-18T07:24:50;-3.40;92.50
5027;DHT22;2532;52.480;13.354;2022-12-18T07:27:17;-3.50;92.10
5027;DHT22;2532;52.480;13.354;2022-12-18T07:29:44;-3.40;92.30
5027;DHT22;2532;52.480;13.354;2022-12-18T07:32:11;-3.40;92.40
5027;DHT22;2532;52.480;13.354;2022-12-18T07:34:38;-3.40;92.40
5027;DHT22;2532;52.480;13.354;2022-12-18T07:37:05;-3.40;92.30
5027;DHT22;2532;52.480;13.354;2022-12-18T07:39:33;-3.40;92.40
5027;DHT22;2532;52.480;13.354;2022-12-18T07:42:00;-3.30;92.50
5027;DHT22;2532;52.480;13.354;2022-12-18T07:44:44;-3.30;92.40
5027;DHT22;2532;52.480;13.354;2022-12-18T07:47:11;-3.40;92.40
5027;DHT22;2532;52.480;13.354;2022-12-18T07:49:38;-3.30;92.30
5027;DHT22;2532;52.480;13.354;2022-12-18T07:52:05;-3.30;92.40
5027;DHT22;2532;52.480;13.354;2022-12-18T07:54:33;-3.30;92.40
5027;DHT22;2532;52.480;13.354;2022-12-18T07:57:00;-3.30;92.30
5027;DHT22;2532;52.480;13.354;2022-12-18T07:59:27;-3.20;92.40
5027;DHT22;2532;52.480;13.354;2022-12-18T08:01:54;-3.20;92.50
5027;DHT22;2532;52.480;13.354;2022-12-18T08:04:24;-3.20;92.40
5027;DHT22;2532;52.480;13.354;2022-12-18T08:06:51;-3.20;92.40
5027;DHT22;2532;52.480;13.354;2022-12-18T08:09:18;-3.30;92.40
5027;DHT22;2532;52.480;13.354;2022-12-18T08:11:46;-3.30;92.50
5027;DHT22;2532;52.480;13.354;2022-12-18T08:14:13;-3.20;92.60
5027;DHT22;2532;52.480;13.354;2022-12-18T08:16:41;-3.30;92.70
5027;DHT22;2532;52.480;13.354;2022-12-18T08:19:11;-3.30;92.80
5027;DHT22;2532;52.480;13.354;2022-12-18T08:21:40;-3.20;92.90
5027;DHT22;2532;52.480;13.354;2022-12-18T08:24:09;-3.20;92.80
5027;DHT22;2532;52.480;13.354;2022-12-18T08:26:36;-3.20;92.80
5027;DHT22;2532;52.480;13.354;2022-12-18T08:29:04;-3.20;92.80
5027;DHT22;2532;52.480;13.354;2022-12-18T08:31:31;-3.10;92.80
5027;DHT22;2532;52.480;13.354;2022-12-18T08:33:58;-3.10;92.80
5027;DHT22;2532;52.480;13.354;2022-12-18T08:36:25;-3.10;92.70
5027;DHT22;2532;52.480;13.354;2022-12-18T08:38:52;-3.00;92.90
5027;DHT22;2532;52.480;13.354;2022-12-18T08:41:19;-3.00;92.90
5027;DHT22;2532;52.480;13.354;2022-12-18T08:43:46;-2.90;92.70
5027;DHT22;2532;52.480;13.354;2022-12-18T08:46:35;-3.00;92.60
5027;DHT22;2532;52.480;13.354;2022-12-18T08:49:02;-2.90;92.80
5027;DHT22;2532;52.480;13.354;2022-12-18T08:51:32;-2.90;92.80
5027;DHT22;2532;52.480;13.354;2022-12-18T08:53:59;-2.80;92.90
5027;DHT22;2532;52.480;13.354;2022-12-18T08:56:26;-2.80;92.70
5027;DHT22;2532;52.480;13.354;2022-12-18T08:58:54;-2.80;92.50
5027;DHT22;2532;52.480;13.354;2022-12-18T09:01:21;-2.80;92.40
5027;DHT22;2532;52.480;13.354;2022-12-18T09:03:50;-2.80;92.40
5027;DHT22;2532;52.480;13.354;2022-12-18T09:06:19;-2.70;92.40
5027;DHT22;2532;52.480;13.354;2022-12-18T09:08:46;-2.70;92.30
5027;DHT22;2532;52.480;13.354;2022-12-18T09:11:15;-2.80;92.20
5027;DHT22;2532;52.480;13.354;2022-12-18T09:13:42;-2.80;92.20
5027;DHT22;2532;52.480;13.354;2022-12-18T09:16:09;-2.90;92.10
5027;DHT22;2532;52.480;13.354;2022-12-18T09:18:36;-3.00;92.00
5027;DHT22;2532;52.480;13.354;2022-12-18T09:21:11;-3.00;92.30
5027;DHT22;2532;52.480;13.354;2022-12-18T09:23:38;-3.10;92.30
5027;DHT22;2532;52.480;13.354;2022-12-18T09:26:05;-3.00;92.50
5027;DHT22;2532;52.480;13.354;2022-12-18T09:28:32;-3.00;92.60
5027;DHT22;2532;52.480;13.354;2022-12-18T09:31:04;-3.00;92.80
5027;DHT22;2532;52.480;13.354;2022-12-18T09:33:31;-2.90;92.90
5027;DHT22;2532;52.480;13.354;2022-12-18T09:35:57;-2.80;92.90
5027;DHT22;2532;52.480;13.354;2022-12-18T09:38:28;-2.80;92.80
5027;DHT22;2532;52.480;13.354;2022-12-18T09:40:59;-2.70;92.80
5027;DHT22;2532;52.480;13.354;2022-12-18T09:43:29;-2.60;92.80
5027;DHT22;2532;52.480;13.354;2022-12-18T09:46:03;-2.60;92.70
5027;DHT22;2532;52.480;13.354;2022-12-18T09:48:34;-2.60;92.40
5027;DHT22;2532;52.480;13.354;2022-12-18T09:51:05;-2.60;92.50
5027;DHT22;2532;52.480;13.354;2022-12-18T09:53:37;-2.50;92.50
5027;DHT22;2532;52.480;13.354;2022-12-18T09:56:05;-2.50;92.50
5027;DHT22;2532;52.480;13.354;2022-12-18T09:58:37;-2.50;92.50
5027;DHT22;2532;52.480;13.354;2022-12-18T10:01:10;-2.50;92.60
5027;DHT22;2532;52.480;13.354;2022-12-18T10:03:37;-2.40;92.70
5027;DHT22;2532;52.480;13.354;2022-12-18T10:06:07;-2.30;92.70
5027;DHT22;2532;52.480;13.354;2022-12-18T10:08:43;-2.30;92.70
5027;DHT22;2532;52.480;13.354;2022-12-18T10:11:23;-2.20;92.60
5027;DHT22;2532;52.480;13.354;2022-12-18T10:13:54;-2.20;92.50
5027;DHT22;2532;52.480;13.354;2022-12-18T10:16:29;-2.20;92.50
5027;DHT22;2532;52.480;13.354;2022-12-18T10:19:13;-2.10;92.50
5027;DHT22;2532;52.480;13.354;2022-12-18T10:21:50;-2.10;92.50
5027;DHT22;2532;52.480;13.354;2022-12-18T10:24:24;-2.10;92.40
5027;DHT22;2532;52.480;13.354;2022-12-18T10:26:56;-2.10;92.50
5027;DHT22;2532;52.480;13.354;2022-12-18T10:29:27;-2.10;92.60
5027;DHT22;2532;52.480;13.354;2022-12-18T10:31:55;-2.10;92.70
5027;DHT22;2532;52.480;13.354;2022-12-18T10:34:23;-2.00;92.90
5027;DHT22;2532;52.480;13.354;2022-12-18T10:36:50;-2.00;92.90
5027;DHT22;2532;52.480;13.354;2022-12-18T10:39:21;-1.90;93.00
5027;DHT22;2532;52.480;13.354;2022-12-18T10:41:51;-1.80;93.00
5027;DHT22;2532;52.480;13.354;2022-12-18T10:44:20;-1.80;93.00
5027;DHT22;2532;52.480;13.354;2022-12-18T10:46:49;-1.70;92.90
5027;DHT22;2532;52.480;13.354;2022-12-18T10:49:22;-1.70;92.80
5027;DHT22;2532;52.480;13.354;2022-12-18T10:51:51;-1.60;92.90
5027;DHT22;2532;52.480;13.354;2022-12-18T10:54:22;-1.60;92.60
5027;DHT22;2532;52.480;13.354;2022-12-18T10:56:49;-1.60;92.60
5027;DHT22;2532;52.480;13.354;2022-12-18T10:59:17;-1.60;92.50
5027;DHT22;2532;52.480;13.354;2022-12-18T11:01:49;-1.60;92.60
5027;DHT22;2532;52.480;13.354;2022-12-18T11:04:19;-1.50;92.60
5027;DHT22;2532;52.480;13.354;2022-12-18T11:06:56;-1.50;92.60
5027;DHT22;2532;52.480;13.354;2022-12-18T11:09:26;-1.40;92.70
5027;DHT22;2532;52.480;13.354;2022-12-18T11:11:55;-1.40;92.80
5027;DHT22;2532;52.480;13.354;2022-12-18T11:14:24;-1.30;92.90
5027;DHT22;2532;52.480;13.354;2022-12-18T11:16:52;-1.20;93.40
5027;DHT22;2532;52.480;13.354;2022-12-18T11:19:30;-1.10;93.70
5027;DHT22;2532;52.480;13.354;2022-12-18T11:21:59;-0.90;93.80
5027;DHT22;2532;52.480;13.354;2022-12-18T11:24:30;-0.80;93.70
5027;DHT22;2532;52.480;13.354;2022-12-18T11:26:59;-0.70;93.60
5027;DHT22;2532;52.480;13.354;2022-12-18T11:29:35;-0.60;92.90
5027;DHT22;2532;52.480;13.354;2022-12-18T11:32:29;-0.60;92.80
5027;DHT22;2532;52.480;13.354;2022-12-18T11:35:03;-0.50;92.70
5027;DHT22;2532;52.480;13.354;2022-12-18T11:37:31;-0.50;92.90
5027;DHT22;2532;52.480;13.354;2022-12-18T11:40:05;-0.50;92.40
5027;DHT22;2532;52.480;13.354;2022-12-18T11:42:37;-0.60;91.80
5027;DHT22;2532;52.480;13.354;2022-12-18T11:45:28;-0.70;91.70
5027;DHT22;2532;52.480;13.354;2022-12-18T11:48:00;-0.80;92.20
5027;DHT22;2532;52.480;13.354;2022-12-18T11:50:33;-0.80;92.70
5027;DHT22;2532;52.480;13.354;2022-12-18T11:53:10;-0.80;92.40
5027;DHT22;2532;52.480;13.354;2022-12-18T11:55:44;-0.80;92.40
5027;DHT22;2532;52.480;13.354;2022-12-18T11:58:25;-0.80;92.50
5027;DHT22;2532;52.480;13.354;2022-12-18T12:01:01;-0.80;92.50
5027;DHT22;2532;52.480;13.354;2022-12-18T12:04:01;-0.80;92.60
5027;DHT22;2532;52.480;13.354;2022-12-18T12:06:37;-0.90;92.50
5027;DHT22;2532;52.480;13.354;2022-12-18T12:09:12;-0.90;92.20
5027;DHT22;2532;52.480;13.354;2022-12-18T12:11:53;-0.90;92.30
5027;DHT22;2532;52.480;13.354;2022-12-18T12:14:31;-0.90;92.60
5027;DHT22;2532;52.480;13.354;2022-12-18T12:17:08;-0.80;93.10
5027;DHT22;2532;52.480;13.354;2022-12-18T12:19:44;-0.70;93.10
5027;DHT22;2532;52.480;13.354;2022-12-18T12:22:20;-0.60;93.00
5027;DHT22;2532;52.480;13.354;2022-12-18T12:25:04;-0.50;92.80
5027;DHT22;2532;52.480;13.354;2022-12-18T12:27:39;-0.40;93.10
5027;DHT22;2532;52.480;13.354;2022-12-18T12:30:17;-0.30;93.20
5027;DHT22;2532;52.480;13.354;2022-12-18T12:32:54;-0.20;92.80
5027;DHT22;2532;52.480;13.354;2022-12-18T12:35:35;-0.20;92.10
5027;DHT22;2532;52.480;13.354;2022-12-18T12:38:09;-0.20;91.70
5027;DHT22;2532;52.480;13.354;2022-12-18T12:40:39;-0.20;91.50
5027;DHT22;2532;52.480;13.354;2022-12-18T12:43:20;-0.20;91.70
5027;DHT22;2532;52.480;13.354;2022-12-18T12:45:50;-0.20;92.20
5027;DHT22;2532;52.480;13.354;2022-12-18T12:48:27;-0.20;91.90
5027;DHT22;2532;52.480;13.354;2022-12-18T12:50:59;-0.20;91.90
5027;DHT22;2532;52.480;13.354;2022-12-18T12:53:31;-0.10;92.20
5027;DHT22;2532;52.480;13.354;2022-12-18T12:56:01;-0.10;92.30
5027;DHT22;2532;52.480;13.354;2022-12-18T12:58:36;-0.10;92.20
5027;DHT22;2532;52.480;13.354;2022-12-18T13:01:16;0.00;92.50
5027;DHT22;2532;52.480;13.354;2022-12-18T13:03:53;0.10;92.20
5027;DHT22;2532;52.480;13.354;2022-12-18T13:06:31;0.10;92.20
5027;DHT22;2532;52.480;13.354;2022-12-18T13:09:00;0.10;92.00
5027;DHT22;2532;52.480;13.354;2022-12-18T13:11:39;0.10;91.50
5027;DHT22;2532;52.480;13.354;2022-12-18T13:14:28;0.00;91.30
5027;DHT22;2532;52.480;13.354;2022-12-18T13:17:15;-0.10;91.10
5027;DHT22;2532;52.480;13.354;2022-12-18T13:19:43;-0.20;90.90
5027;DHT22;2532;52.480;13.354;2022-12-18T13:22:21;-0.40;91.00
5027;DHT22;2532;52.480;13.354;2022-12-18T13:24:48;-0.50;91.10
5027;DHT22;2532;52.480;13.354;2022-12-18T13:27:46;-0.70;91.30
5027;DHT22;2532;52.480;13.354;2022-12-18T13:30:45;-0.80;91.70
5027;DHT22;2532;52.480;13.354;2022-12-18T13:33:42;-0.80;91.90
5027;DHT22;2532;52.480;13.354;2022-12-18T13:36:14;-0.80;92.00
5027;DHT22;2532;52.480;13.354;2022-12-18T13:38:44;-0.90;92.00
5027;DHT22;2532;52.480;13.354;2022-12-18T13:41:25;-0.90;92.00
5027;DHT22;2532;52.480;13.354;2022-12-18T13:43:54;-1.10;92.20
5027;DHT22;2532;52.480;13.354;2022-12-18T13:46:27;-1.10;92.40
5027;DHT22;2532;52.480;13.354;2022-12-18T13:48:58;-1.10;92.60
5027;DHT22;2532;52.480;13.354;2022-12-18T13:51:27;-1.10;92.50
5027;DHT22;2532;52.480;13.354;2022-12-18T13:53:58;-1.10;92.40
5027;DHT22;2532;52.480;13.354;2022-12-18T13:56:27;-1.10;92.40
5027;DHT22;2532;52.480;13.354;2022-12-18T13:59:11;-1.10;92.50
5027;DHT22;2532;52.480;13.354;2022-12-18T14:01:44;-1.00;92.60
5027;DHT22;2532;52.480;13.354;2022-12-18T14:04:16;-1.00;92.50
5027;DHT22;2532;52.480;13.354;2022-12-18T14:06:45;-1.00;92.70
5027;DHT22;2532;52.480;13.354;2022-12-18T14:09:14;-0.90;92.30
5027;DHT22;2532;52.480;13.354;2022-12-18T14:11:46;-0.90;92.30
5027;DHT22;2532;52.480;13.354;2022-12-18T14:14:15;-0.90;92.30
5027;DHT22;2532;52.480;13.354;2022-12-18T14:16:45;-0.90;92.20
5027;DHT22;2532;52.480;13.354;2022-12-18T14:19:14;-0.90;92.30
5027;DHT22;2532;52.480;13.354;2022-12-18T14:21:46;-1.00;92.00
5027;DHT22;2532;52.480;13.354;2022-12-18T14:24:15;-1.10;91.90
5027;DHT22;2532;52.480;13.354;2022-12-18T14:26:43;-1.20;92.00
5027;DHT22;2532;52.480;13.354;2022-12-18T14:29:24;-1.20;92.20
5027;DHT22;2532;52.480;13.354;2022-12-18T14:32:11;-1.30;92.30
5027;DHT22;2532;52.480;13.354;2022-12-18T14:34:39;-1.20;92.40
5027;DHT22;2532;52.480;13.354;2022-12-18T14:37:09;-1.30;92.30
5027;DHT22;2532;52.480;13.354;2022-12-18T14:39:36;-1.30;92.40
5027;DHT22;2532;52.480;13.354;2022-12-18T14:42:05;-1.30;92.40
5027;DHT22;2532;52.480;13.354;2022-12-18T14:44:32;-1.20;92.50
5027;DHT22;2532;52.480;13.354;2022-12-18T14:46:59;-1.20;92.70
5027;DHT22;2532;52.480;13.354;2022-12-18T14:49:30;-1.20;92.60
5027;DHT22;2532;52.480;13.354;2022-12-18T14:52:02;-1.20;92.60
5027;DHT22;2532;52.480;13.354;2022-12-18T14:54:30;-1.10;92.60
5027;DHT22;2532;52.480;13.354;2022-12-18T14:57:00;-1.10;92.90
5027;DHT22;2532;52.480;13.354;2022-12-18T14:59:29;-1.10;92.60
5027;DHT22;2532;52.480;13.354;2022-12-18T15:02:04;-1.00;92.60
5027;DHT22;2532;52.480;13.354;2022-12-18T15:04:39;-0.90;92.50
5027;DHT22;2532;52.480;13.354;2022-12-18T15:07:13;-0.90;92.40
5027;DHT22;2532;52.480;13.354;2022-12-18T15:09:42;-1.00;92.00
5027;DHT22;2532;52.480;13.354;2022-12-18T15:12:24;-1.00;92.00
5027;DHT22;2532;52.480;13.354;2022-12-18T15:14:52;-1.10;91.90
5027;DHT22;2532;52.480;13.354;2022-12-18T15:17:21;-1.10;92.00
5027;DHT22;2532;52.480;13.354;2022-12-18T15:19:51;-1.20;92.00
5027;DHT22;2532;52.480;13.354;2022-12-18T15:22:26;-1.20;92.00
5027;DHT22;2532;52.480;13.354;2022-12-18T15:24:54;-1.20;92.20
5027;DHT22;2532;52.480;13.354;2022-12-18T15:27:27;-1.30;92.00
5027;DHT22;2532;52.480;13.354;2022-12-18T15:30:20;-1.30;92.00
5027;DHT22;2532;52.480;13.354;2022-12-18T15:32:49;-1.40;91.80
5027;DHT22;2532;52.480;13.354;2022-12-18T15:35:20;-1.40;91.80
5027;DHT22;2532;52.480;13.354;2022-12-18T15:37:51;-1.40;91.90
5027;DHT22;2532;52.480;13.354;2022-12-18T15:40:20;-1.40;91.90
5027;DHT22;2532;52.480;13.354;2022-12-18T15:42:50;-1.40;91.90
5027;DHT22;2532;52.480;13.354;2022-12-18T15:45:38;-1.40;91.90
5027;DHT22;2532;52.480;13.354;2022-12-18T15:48:18;-1.40;92.00
5027;DHT22;2532;52.480;13.354;2022-12-18T15:50:48;-1.30;92.00
5027;DHT22;2532;52.480;13.354;2022-12-18T15:53:15;-1.30;91.90
5027;DHT22;2532;52.480;13.354;2022-12-18T15:55:42;-1.30;91.90
5027;DHT22;2532;52.480;13.354;2022-12-18T15:58:27;-1.30;92.00
5027;DHT22;2532;52.480;13.354;2022-12-18T16:00:55;-1.30;92.10
5027;DHT22;2532;52.480;13.354;2022-12-18T16:03:22;-1.20;92.20
5027;DHT22;2532;52.480;13.354;2022-12-18T16:05:51;-1.20;92.10
5027;DHT22;2532;52.480;13.354;2022-12-18T16:08:17;-1.20;92.00
5027;DHT22;2532;52.480;13.354;2022-12-18T16:10:44;-1.20;92.20